Terminal Aerodrome Forecast
Issued by NWS Kansas City/Pleasant Hill, MO

Current Version | Previous Version | Text Only | Print | Product List | Glossary On
Versions: 1 2 3 4 5 6 7 8 9 10 11 12 13 14 15 16 17 18 19
000
FTUS43 KEAX 300500
TAFMCI
TAF
KMCI 300520Z 3006/3106 17009KT P6SM BKN050 OVC070
     FM301000 VRB05KT 4SM BR FEW001
     FM301300 29006KT P6SM SCT200=

USA.gov is the U.S. government's official web portal to all federal, state and local government web resources and services.